LOWKLOXT

Guest
Details From LOWK - Klagenfurt Woerthersee
To LOXT - Tulln
Flight Number -
Tags generated
Created
Modified
Stats Distance 124 nm / 230 km
Max Altitude 15,400 ft / 4,694 m
Waypoints 3
Social Downloads 0
Likes 0
Share VATSIM

Download

Looking for another format? Having issues loading an existing format? Contact us
Advertisement - Login to hide

Notes

Basic altitude profile: - Ascent Rate: 700ft/min - Ascent Speed: 100kts - Cruise Altitude: 8000ft - Cruise Speed: 100kts - Descent Rate: 1000ft/min - Descent Speed: 100kts Options: - Use NATs: yes - Use PACOTS: yes - Use low airways: yes - Use high airways: no

Route

LOWK LEOBE LOXT

ID Type Via Altitude Latitude Longitude Leg Dist Tot Dist Heading (true) Name
O LOWK APT - 0 ft / 0 m 46.64285˚ 14.33117˚ - 0 nm - Klagenfurt Woerthersee
LEOBE FIX - 15,400 ft / 4,694 m 47.36369˚ 15.02696˚ 51 nm 51 nm 33° / 34° -
O LOXT APT - 0 ft / 0 m 48.31888˚ 16.11268˚ 72 nm 123 nm 37° / 38° Tulln

Altitude Profile

Advertisement - Login to hide

LOWK

Details ICAO LOWK (KLU)
Name Klagenfurt Woerthersee
Region Austria
Timezone Europe/Vienna (UTC+1.0)
Stats Elevation 1,470 ft / 448 m (AMSL)
Location 46.642851° 14.331169°
Runways 2
Magnetic Variation 3.661° E

METAR

LOWK 162050Z 33004KT 9999 FEW005 SCT015 BKN017 01/M00 Q1013 R10L/19//95 NOSIG

Decode

TAF

TAF LOWK 161715Z 1618/1718 VRB02KT 8000 BKN015 TX02/1714Z TNM04/1706Z TEMPO 1618/1707 3000 BR BKN007 PROB30 TEMPO 1622/1707 0400 FZBCFG VV002

Decode

Departure Runways

ID Width Length Bearing (true) Bearing (mag) Surface Threshold Offset Overrun Length
10L 148 ft / 45 m 8,903 ft / 2,714 m 106.32° 102.66° Concrete 656 ft / 200 m 0 ft / 0 m
10R 89 ft / 27 m 2,329 ft / 710 m 106.42° 102.76° Grass 197 ft / 60 m 0 ft / 0 m
28L 89 ft / 27 m 2,329 ft / 710 m 286.43° 282.77° Grass 197 ft / 60 m 0 ft / 0 m
28R 148 ft / 45 m 8,903 ft / 2,714 m 286.34° 282.68° Concrete 0 ft / 0 m 0 ft / 0 m

LOXT

Details ICAO LOXT
Name Tulln
Region Austria
Timezone Europe/Vienna (UTC+1.0)
Stats Elevation 575 ft / 175 m (AMSL)
Location 48.318875° 16.112684°
Runways 4
Magnetic Variation 4.173° E

METAR

LOXT 162050Z 24005KT 10KM SCT050SC BKN070SC 03/01 Q1013 RMK OVC

Decode

TAF

Not found

Destination Runways

ID Width Length Bearing (true) Bearing (mag) Surface Threshold Offset Overrun Length
05 148 ft / 45 m 3,276 ft / 999 m 50.13° 45.96° Grass 0 ft / 0 m 0 ft / 0 m
08 148 ft / 45 m 4,492 ft / 1,369 m 84.19° 80.02° Asphalt 0 ft / 0 m 0 ft / 0 m
08R 148 ft / 45 m 3,035 ft / 925 m 84.27° 80.10° Grass 0 ft / 0 m 0 ft / 0 m
13 140 ft / 43 m 2,250 ft / 686 m 129.11° 124.94° Grass 0 ft / 0 m 0 ft / 0 m
23 148 ft / 45 m 3,276 ft / 999 m 230.13° 225.96° Grass 0 ft / 0 m 0 ft / 0 m
26 148 ft / 45 m 4,492 ft / 1,369 m 264.21° 260.04° Asphalt 0 ft / 0 m 0 ft / 0 m
26L 148 ft / 45 m 3,035 ft / 925 m 264.27° 260.10° Grass 0 ft / 0 m 0 ft / 0 m
31 140 ft / 43 m 2,250 ft / 686 m 309.11° 304.94° Grass 0 ft / 0 m 0 ft / 0 m

Popular Alternatives